Time;durP1;ratioP1;P1;durP2;ratioP2;P2;SDS_P1;SDS_P2;PMS_P1;PMS_P2;Temp;Humidity;BMP_temperature;BMP_pressure;BME280_temperature;BME280_humidity;BME280_pressure;Samples;Min_cycle;Max_cycle;Signal;HPM_P1;HPM_P2
2022/09/07 00:01:42;;;;;;;2.00;1.80;;;;;;;18.08;50.50;101178.41;5028069;28;22554;-57
2022/09/07 00:04:09;;;;;;;3.88;2.15;;;;;;;18.11;50.17;101184.50;5030683;28;20235;-57
2022/09/07 00:06:35;;;;;;;2.22;2.03;;;;;;;18.11;50.84;101179.19;5028190;28;20750;-55
2022/09/07 00:09:04;;;;;;;5.28;2.50;;;;;;;17.95;50.55;101171.63;5022186;28;20739;-56
2022/09/07 00:11:30;;;;;;;2.80;2.17;;;;;;;17.99;50.44;101163.53;5031986;28;20239;-57
2022/09/07 00:13:57;;;;;;;2.58;2.00;;;;;;;17.88;51.21;101161.16;5029526;28;20243;-56
2022/09/07 00:16:26;;;;;;;1.92;1.80;;;;;;;17.94;50.97;101162.78;5028616;28;20235;-56
2022/09/07 00:18:54;;;;;;;3.05;1.83;;;;;;;17.92;51.90;101155.78;5031778;28;20327;-56
2022/09/07 00:21:21;;;;;;;2.63;2.42;;;;;;;17.87;51.14;101154.09;5035958;28;20777;-57
2022/09/07 00:23:48;;;;;;;3.17;1.80;;;;;;;17.82;51.46;101155.09;5029447;28;20225;-56
2022/09/07 00:26:18;;;;;;;2.67;2.30;;;;;;;17.72;51.29;101158.84;5028895;28;20231;-56
2022/09/07 00:28:45;;;;;;;1.83;1.58;;;;;;;17.65;51.54;101164.34;5031879;28;20244;-56
2022/09/07 00:31:13;;;;;;;5.35;1.67;;;;;;;17.66;51.97;101159.91;5028250;28;20244;-55
2022/09/07 00:33:40;;;;;;;4.47;2.13;;;;;;;17.65;52.01;101152.81;5030816;28;20256;-55
2022/09/07 00:36:07;;;;;;;1.85;1.75;;;;;;;17.68;51.80;101152.75;5030202;28;20270;-56
2022/09/07 00:38:33;;;;;;;2.05;1.80;;;;;;;17.65;53.50;101153.72;5027901;28;20235;-55
2022/09/07 00:41:00;;;;;;;3.45;1.90;;;;;;;17.62;52.94;101151.13;5030131;28;20325;-56
2022/09/07 00:43:32;;;;;;;6.50;1.98;;;;;;;17.61;53.32;101146.69;5030962;28;20232;-56
2022/09/07 00:45:59;;;;;;;2.00;1.80;;;;;;;17.67;54.83;101151.00;5035294;28;20289;-56
2022/09/07 00:48:29;;;;;;;5.97;2.38;;;;;;;17.54;51.91;101158.38;5035509;28;20227;-55
2022/09/07 00:51:00;;;;;;;4.05;2.20;;;;;;;17.57;52.59;101145.03;5039835;28;20242;-56
2022/09/07 00:53:29;;;;;;;4.95;1.80;;;;;;;17.42;53.40;101146.28;5029279;28;20241;-55
2022/09/07 00:55:56;;;;;;;5.75;2.40;;;;;;;17.38;53.00;101144.59;5031728;28;20240;-55
2022/09/07 00:58:23;;;;;;;2.22;2.00;;;;;;;17.35;53.11;101143.78;5039357;28;20714;-57
2022/09/07 01:00:51;;;;;;;2.35;1.88;;;;;;;17.42;51.97;101148.06;5038477;28;20239;-56
2022/09/07 01:03:21;;;;;;;4.05;2.05;;;;;;;17.35;52.75;101141.13;5038145;28;20224;-56
2022/09/07 01:05:52;;;;;;;7.25;2.10;;;;;;;17.32;54.88;101151.81;5038261;28;20247;-57
2022/09/07 01:08:18;;;;;;;5.32;1.80;;;;;;;17.29;53.08;101143.91;5041633;28;20319;-56
2022/09/07 01:10:46;;;;;;;3.67;2.28;;;;;;;17.26;54.83;101138.69;5033387;28;20710;-56
2022/09/07 01:13:13;;;;;;;2.67;2.20;;;;;;;17.17;52.37;101143.28;5038078;28;20236;-56
2022/09/07 01:15:46;;;;;;;4.25;1.80;;;;;;;17.22;55.22;101137.00;5029429;28;20238;-56
2022/09/07 01:18:21;;;;;;;6.00;1.98;;;;;;;17.15;53.08;101137.13;5038708;28;20421;-56
2022/09/07 01:20:55;;;;;;;3.85;2.10;;;;;;;17.09;52.96;101139.03;5036829;28;20224;-55
2022/09/07 01:23:53;;;;;;;6.25;1.80;;;;;;;17.25;55.66;101139.59;5037420;28;20235;-56
2022/09/07 01:26:34;;;;;;;3.22;1.98;;;;;;;17.20;52.81;101118.47;5038742;28;20235;-55
2022/09/07 01:29:06;;;;;;;2.85;2.03;;;;;;;17.10;55.79;101123.09;5039354;28;20239;-55
2022/09/07 01:31:41;;;;;;;2.53;2.15;;;;;;;17.05;55.24;101124.97;5041210;28;20735;-56
2022/09/07 01:34:11;;;;;;;3.03;1.90;;;;;;;17.09;54.21;101131.97;5037154;28;20274;-55
2022/09/07 01:36:45;;;;;;;6.03;2.22;;;;;;;17.12;55.06;101129.22;5043468;28;20236;-56
2022/09/07 01:39:12;;;;;;;3.60;1.77;;;;;;;17.04;54.63;101132.97;5034982;28;20245;-56
2022/09/07 01:41:42;;;;;;;2.45;1.98;;;;;;;16.99;54.13;101122.47;5031943;28;20234;-56
2022/09/07 01:44:16;;;;;;;4.25;2.13;;;;;;;16.82;54.23;101122.81;5036061;28;20232;-55
2022/09/07 01:46:45;;;;;;;2.65;2.00;;;;;;;16.90;55.68;101110.25;5038654;28;20236;-57
2022/09/07 01:49:17;;;;;;;2.10;1.90;;;;;;;16.79;55.00;101114.06;5039854;28;20240;-55
2022/09/07 01:51:46;;;;;;;2.45;1.98;;;;;;;16.85;54.70;101117.44;5038825;28;23025;-57
2022/09/07 01:54:17;;;;;;;5.75;2.03;;;;;;;16.77;55.25;101118.50;5041237;28;20236;-57
2022/09/07 01:56:45;;;;;;;2.10;1.50;;;;;;;16.79;54.86;101109.63;5036058;28;20251;-56
2022/09/07 01:59:19;;;;;;;1.77;1.63;;;;;;;16.87;54.67;101112.09;5034611;28;20984;-56
2022/09/07 02:01:49;;;;;;;2.47;2.28;;;;;;;16.73;54.64;101119.44;5039954;28;20228;-56
2022/09/07 02:04:18;;;;;;;3.47;1.98;;;;;;;16.70;54.94;101117.72;5035048;28;20231;-58
2022/09/07 02:06:48;;;;;;;3.28;1.75;;;;;;;16.68;55.09;101123.06;5034594;28;20240;-57
2022/09/07 02:09:18;;;;;;;5.45;2.28;;;;;;;16.76;55.71;101119.41;5033200;28;20255;-57
2022/09/07 02:11:48;;;;;;;2.60;1.52;;;;;;;16.79;55.47;101122.00;5030583;28;20737;-55
2022/09/07 02:14:20;;;;;;;2.35;1.95;;;;;;;16.79;54.72;101122.00;5035668;28;20235;-56
2022/09/07 02:16:50;;;;;;;3.42;1.65;;;;;;;16.91;54.53;101119.09;5035309;28;20235;-56
2022/09/07 02:19:18;;;;;;;2.90;1.80;;;;;;;16.73;57.13;101122.09;5037169;28;20740;-56
2022/09/07 02:21:49;;;;;;;7.22;2.47;;;;;;;16.58;55.50;101113.53;5032407;28;20645;-55
2022/09/07 02:24:20;;;;;;;4.38;2.00;;;;;;;16.64;57.45;101112.56;5038559;28;20698;-56
2022/09/07 02:26:50;;;;;;;3.50;2.10;;;;;;;16.59;56.30;101119.72;5036045;28;20239;-55
2022/09/07 02:29:17;;;;;;;2.85;1.92;;;;;;;16.55;57.44;101118.03;5035429;28;20804;-57
2022/09/07 02:31:44;;;;;;;5.60;2.08;;;;;;;16.45;57.88;101112.03;5034825;28;20238;-54
2022/09/07 02:34:11;;;;;;;4.82;2.05;;;;;;;16.48;56.53;101119.06;5040770;28;20232;-56
2022/09/07 02:36:40;;;;;;;3.47;2.47;;;;;;;16.58;57.35;101118.84;5039398;28;20236;-55
2022/09/07 02:39:07;;;;;;;2.35;1.88;;;;;;;16.61;57.12;101121.44;5036383;28;20232;-55
2022/09/07 02:41:36;;;;;;;5.55;2.40;;;;;;;16.71;58.61;101114.19;5044659;28;20266;-55
2022/09/07 02:44:06;;;;;;;4.43;2.33;;;;;;;16.74;56.70;101113.22;5031849;28;20279;-57
2022/09/07 02:46:46;;;;;;;6.53;2.25;;;;;;;16.59;57.49;101107.31;5038279;28;20244;-56
2022/09/07 02:49:23;;;;;;;4.38;2.42;;;;;;;16.67;56.93;101102.75;5034939;28;20240;-56
2022/09/07 02:51:56;;;;;;;2.92;2.10;;;;;;;16.57;57.87;101095.03;5037308;28;20232;-56
2022/09/07 02:54:32;;;;;;;3.25;2.20;;;;;;;16.58;58.30;101091.47;5032073;28;20225;-57
2022/09/07 02:57:06;;;;;;;3.33;2.33;;;;;;;16.61;57.68;101092.28;5034774;28;20233;-56
2022/09/07 02:59:40;;;;;;;5.95;1.55;;;;;;;16.47;57.21;101094.31;5040445;28;20236;-55
2022/09/07 03:02:13;;;;;;;2.88;1.90;;;;;;;16.33;57.70;101102.53;5040944;28;20792;-55
2022/09/07 03:04:45;;;;;;;2.83;2.40;;;;;;;16.13;57.41;101108.19;5034743;28;20734;-56
2022/09/07 03:07:14;;;;;;;3.03;1.92;;;;;;;16.18;58.42;101111.66;5027557;28;20247;-55
2022/09/07 03:09:44;;;;;;;2.38;2.15;;;;;;;16.46;58.12;101103.16;5037192;28;20224;-56
2022/09/07 03:12:11;;;;;;;2.03;1.80;;;;;;;16.45;58.95;101104.06;5040841;28;20687;-56
2022/09/07 03:14:39;;;;;;;3.53;2.35;;;;;;;16.39;58.72;101104.19;5035168;28;20254;-55
2022/09/07 03:17:06;;;;;;;5.35;1.95;;;;;;;16.54;57.53;101101.25;5037751;28;20232;-56
2022/09/07 03:19:34;;;;;;;3.45;2.38;;;;;;;16.34;57.58;101098.97;5028921;28;20251;-55
2022/09/07 03:22:02;;;;;;;2.63;2.38;;;;;;;16.33;58.82;101099.03;5033871;28;20619;-55
2022/09/07 03:24:28;;;;;;;5.70;2.05;;;;;;;16.41;59.20;101105.03;5028115;28;20362;-57
2022/09/07 03:26:55;;;;;;;3.22;2.92;;;;;;;16.37;59.06;101101.56;5039435;28;20236;-57
2022/09/07 03:29:21;;;;;;;2.72;2.08;;;;;;;16.40;59.31;101113.91;5036229;28;20244;-57
2022/09/07 03:31:48;;;;;;;3.53;2.42;;;;;;;16.34;58.57;101108.72;5035840;28;20224;-55
2022/09/07 03:34:16;;;;;;;2.60;2.38;;;;;;;16.42;60.40;101104.13;5036858;28;20905;-55
2022/09/07 03:36:44;;;;;;;2.40;2.20;;;;;;;16.36;59.80;101096.31;5034032;28;20228;-56
2022/09/07 03:39:12;;;;;;;4.82;2.70;;;;;;;16.27;59.21;101093.84;5030287;28;20233;-55
2022/09/07 03:41:38;;;;;;;4.97;2.60;;;;;;;16.11;58.78;101091.47;5031349;28;20306;-55
2022/09/07 03:44:06;;;;;;;3.65;2.25;;;;;;;16.21;58.99;101081.56;5040909;28;20226;-54
2022/09/07 03:46:33;;;;;;;3.50;2.35;;;;;;;16.26;59.99;101073.53;5035380;28;20240;-56
2022/09/07 03:48:59;;;;;;;5.50;2.47;;;;;;;16.11;59.50;101070.28;5030946;28;20260;-55
2022/09/07 03:51:26;;;;;;;3.67;2.67;;;;;;;16.19;61.32;101067.47;5030486;28;20239;-57
2022/09/07 03:53:54;;;;;;;2.10;1.90;;;;;;;16.21;59.24;101066.53;5029713;28;20236;-55
2022/09/07 03:56:22;;;;;;;5.97;2.50;;;;;;;16.04;59.60;101062.44;5033461;28;20238;-56
2022/09/07 03:58:50;;;;;;;3.80;2.45;;;;;;;16.18;59.25;101057.78;5033810;28;20248;-55
2022/09/07 04:01:18;;;;;;;3.90;2.40;;;;;;;16.15;61.37;101056.06;5026652;28;20238;-56
2022/09/07 04:03:45;;;;;;;2.95;2.15;;;;;;;16.07;60.11;101050.03;5029402;28;20235;-56
2022/09/07 04:06:12;;;;;;;5.10;2.30;;;;;;;16.04;61.58;101047.47;5036283;28;20265;-55
2022/09/07 04:08:42;;;;;;;2.75;2.20;;;;;;;15.88;60.84;101045.97;5032757;28;20305;-56
2022/09/07 04:11:11;;;;;;;5.60;2.60;;;;;;;15.96;61.85;101044.94;5032839;28;20232;-55
2022/09/07 04:13:38;;;;;;;3.53;2.63;;;;;;;15.95;61.19;101047.63;5027136;28;20233;-54
2022/09/07 04:16:12;;;;;;;4.93;2.40;;;;;;;15.99;60.19;101044.00;5030689;28;20651;-55
2022/09/07 04:18:39;;;;;;;7.82;2.70;;;;;;;15.91;60.52;101052.09;5028974;28;20625;-56
2022/09/07 04:21:06;;;;;;;3.53;2.38;;;;;;;15.92;61.07;101047.66;5030049;28;20229;-56
2022/09/07 04:23:32;;;;;;;5.15;2.53;;;;;;;15.94;61.09;101048.53;5037306;28;20239;-58
2022/09/07 04:25:59;;;;;;;3.08;2.45;;;;;;;15.88;61.35;101041.56;5037545;28;20248;-56
2022/09/07 04:28:27;;;;;;;4.38;2.65;;;;;;;15.72;61.16;101046.25;5039713;28;20228;-57
2022/09/07 04:30:53;;;;;;;3.58;2.00;;;;;;;15.81;62.50;101047.00;5046543;28;20235;-55
2022/09/07 04:33:20;;;;;;;2.38;2.15;;;;;;;15.76;61.00;101052.38;5045518;28;20232;-54
2022/09/07 04:35:47;;;;;;;6.15;3.15;;;;;;;15.57;62.01;101051.75;5040665;28;20283;-56
2022/09/07 04:38:15;;;;;;;4.45;2.63;;;;;;;15.71;61.77;101055.09;5039189;28;20596;-57
2022/09/07 04:40:41;;;;;;;3.38;2.33;;;;;;;15.91;61.67;101048.56;5039474;28;20570;-56
2022/09/07 04:43:08;;;;;;;3.70;2.85;;;;;;;15.90;62.07;101052.09;5044070;28;20270;-56
2022/09/07 04:45:37;;;;;;;6.75;2.22;;;;;;;15.71;61.67;101044.50;5037531;28;20730;-57
2022/09/07 04:48:04;;;;;;;3.72;2.60;;;;;;;15.79;62.24;101051.44;5045048;28;20235;-57
2022/09/07 04:50:31;;;;;;;4.20;2.53;;;;;;;15.64;62.04;101047.25;5040893;28;20228;-58
2022/09/07 04:52:57;;;;;;;4.00;2.50;;;;;;;15.71;63.28;101052.44;5037745;28;20757;-57
2022/09/07 04:55:24;;;;;;;3.22;2.47;;;;;;;15.79;63.24;101052.28;5030345;28;20241;-57
2022/09/07 04:57:50;;;;;;;8.20;3.00;;;;;;;15.64;61.99;101042.81;5046733;28;20240;-57
2022/09/07 05:00:17;;;;;;;5.07;2.80;;;;;;;15.80;62.58;101034.66;5038447;28;20236;-58
2022/09/07 05:02:45;;;;;;;4.32;2.95;;;;;;;15.86;61.94;101031.88;5040649;28;20240;-57
2022/09/07 05:05:12;;;;;;;3.05;2.50;;;;;;;15.84;62.24;101034.56;5032842;28;20234;-57
2022/09/07 05:07:38;;;;;;;5.85;2.95;;;;;;;15.80;62.12;101032.00;5045443;28;20239;-55
2022/09/07 05:10:05;;;;;;;5.93;2.78;;;;;;;15.79;62.89;101030.25;5037384;28;20237;-57
2022/09/07 05:12:32;;;;;;;3.05;2.70;;;;;;;15.85;62.13;101035.44;5032660;28;20710;-57
2022/09/07 05:14:58;;;;;;;2.97;2.67;;;;;;;15.70;62.08;101042.75;5039901;28;20235;-55
2022/09/07 05:17:25;;;;;;;3.63;2.45;;;;;;;15.81;62.64;101039.91;5037434;28;20615;-57
2022/09/07 05:19:53;;;;;;;5.35;2.85;;;;;;;15.80;62.68;101042.59;5040235;28;20244;-55
2022/09/07 05:22:21;;;;;;;3.67;2.78;;;;;;;15.68;62.38;101051.63;5040897;28;20342;-57
2022/09/07 05:24:47;;;;;;;3.30;2.90;;;;;;;15.73;62.64;101037.41;5038043;28;20270;-56
2022/09/07 05:27:14;;;;;;;5.40;3.80;;;;;;;15.51;63.16;101046.56;5036706;28;20759;-57
2022/09/07 05:29:41;;;;;;;5.95;3.22;;;;;;;15.59;62.95;101034.09;5033528;28;20232;-56
2022/09/07 05:32:08;;;;;;;2.50;2.20;;;;;;;15.65;64.23;101030.44;5036138;28;20610;-55
2022/09/07 05:34:34;;;;;;;3.88;3.15;;;;;;;15.59;63.16;101027.94;5039081;28;20235;-56
2022/09/07 05:37:02;;;;;;;3.65;3.15;;;;;;;15.51;63.70;101030.69;5040458;28;20722;-57
2022/09/07 05:39:29;;;;;;;4.60;2.92;;;;;;;15.67;63.91;101023.41;5036563;28;20886;-57
2022/09/07 05:41:56;;;;;;;3.92;2.92;;;;;;;15.68;64.83;101023.38;5033015;28;20235;-58
2022/09/07 05:44:23;;;;;;;3.22;2.90;;;;;;;15.87;64.15;101038.94;5038538;28;20231;-57
2022/09/07 05:46:51;;;;;;;4.72;3.25;;;;;;;15.86;64.31;101038.03;5040285;28;20271;-59
2022/09/07 05:49:17;;;;;;;5.53;3.38;;;;;;;15.96;64.17;101034.34;5041526;28;20235;-58
2022/09/07 05:51:44;;;;;;;5.38;2.88;;;;;;;15.86;63.07;101039.81;5037277;28;20228;-58
2022/09/07 05:54:12;;;;;;;5.32;3.55;;;;;;;15.83;64.64;101031.94;5034409;28;20355;-57
2022/09/07 05:56:38;;;;;;;3.17;2.88;;;;;;;16.00;63.88;101035.16;5026266;28;20236;-58
2022/09/07 05:59:05;;;;;;;5.65;3.03;;;;;;;16.18;62.77;101040.13;5039454;28;20250;-58
2022/09/07 06:01:34;;;;;;;5.05;2.50;;;;;;;16.31;62.44;101026.63;5035935;28;20689;-57
2022/09/07 06:04:00;;;;;;;3.97;3.20;;;;;;;16.16;62.60;101028.66;5032643;28;20229;-58
2022/09/07 06:06:27;;;;;;;4.05;3.38;;;;;;;16.05;63.28;101035.09;5039247;28;20235;-57
2022/09/07 06:08:56;;;;;;;8.30;4.40;;;;;;;16.19;63.85;101036.56;5035973;28;20398;-57
2022/09/07 06:11:25;;;;;;;5.45;3.33;;;;;;;16.07;63.47;101041.22;5036828;28;20236;-57
2022/09/07 06:13:52;;;;;;;7.25;3.20;;;;;;;15.94;63.30;101040.59;5039503;28;20223;-58
2022/09/07 06:16:19;;;;;;;5.32;3.60;;;;;;;16.01;64.24;101039.56;5038282;28;20316;-57
2022/09/07 06:18:48;;;;;;;7.85;3.30;;;;;;;16.03;63.77;101045.69;5032615;28;20252;-58
2022/09/07 06:21:16;;;;;;;6.15;3.00;;;;;;;16.20;63.55;101038.31;5035579;28;20607;-57
2022/09/07 06:23:43;;;;;;;11.43;4.05;;;;;;;16.12;63.98;101045.53;5034444;28;20247;-56
2022/09/07 06:26:11;;;;;;;10.13;2.72;;;;;;;16.32;63.84;101037.22;5039439;28;20730;-57
2022/09/07 06:28:40;;;;;;;2.88;2.63;;;;;;;16.30;64.30;101022.22;5039364;28;20228;-57
2022/09/07 06:31:08;;;;;;;3.80;3.20;;;;;;;16.37;63.50;101034.47;5041040;28;20232;-57
2022/09/07 06:33:35;;;;;;;7.07;3.85;;;;;;;16.33;63.37;101027.47;5037668;28;20238;-57
2022/09/07 06:36:04;;;;;;;9.05;3.42;;;;;;;16.22;63.85;101033.84;5042620;28;20239;-56
2022/09/07 06:38:32;;;;;;;5.75;3.15;;;;;;;16.27;64.23;101031.09;5032977;28;20228;-57
2022/09/07 06:41:02;;;;;;;6.65;3.60;;;;;;;16.44;63.87;101033.44;5030583;28;20267;-57
2022/09/07 06:43:28;;;;;;;6.70;3.90;;;;;;;16.35;64.03;101034.47;5038282;28;20224;-56
2022/09/07 06:45:56;;;;;;;10.27;4.03;;;;;;;16.33;64.71;101044.25;5037335;28;20243;-58
2022/09/07 06:48:23;;;;;;;4.47;3.88;;;;;;;16.37;64.75;101045.06;5033669;28;20239;-58
2022/09/07 06:50:56;;;;;;;3.78;3.45;;;;;;;16.53;64.67;101038.56;5023207;28;20547;-56
2022/09/07 06:53:22;;;;;;;5.32;4.28;;;;;;;16.58;64.88;101039.31;5026853;28;20229;-57
2022/09/07 06:55:49;;;;;;;13.05;4.85;;;;;;;16.55;64.46;101033.22;5032878;28;20228;-56
2022/09/07 06:58:16;;;;;;;9.15;3.88;;;;;;;16.70;63.96;101028.44;5028815;28;20243;-56
2022/09/07 07:00:43;;;;;;;6.63;4.10;;;;;;;16.74;63.95;101017.75;5035956;28;20250;-56
2022/09/07 07:03:14;;;;;;;6.28;4.45;;;;;;;16.79;63.97;101015.94;5036802;28;20717;-56
2022/09/07 07:05:40;;;;;;;6.72;3.75;;;;;;;16.73;64.10;101008.94;5031338;28;20232;-56
2022/09/07 07:08:07;;;;;;;5.22;3.85;;;;;;;16.91;63.65;101010.34;5040814;28;20616;-55
2022/09/07 07:10:37;;;;;;;6.65;4.20;;;;;;;16.84;64.31;101014.03;5032884;28;20229;-57
2022/09/07 07:13:04;;;;;;;5.07;3.92;;;;;;;16.92;64.14;101001.50;5037372;28;20724;-57
2022/09/07 07:15:30;;;;;;;4.25;3.85;;;;;;;16.92;64.01;101012.09;5040105;28;20246;-56
2022/09/07 07:17:57;;;;;;;5.85;3.63;;;;;;;17.09;63.63;101009.94;5036092;28;20686;-56
2022/09/07 07:20:25;;;;;;;10.40;4.82;;;;;;;17.21;63.40;101013.22;5037268;28;20243;-55
2022/09/07 07:22:52;;;;;;;5.40;3.92;;;;;;;17.26;63.60;101011.28;5043402;28;20236;-56
2022/09/07 07:25:19;;;;;;;3.85;3.13;;;;;;;17.35;63.48;101009.28;5040900;28;20243;-56
2022/09/07 07:27:46;;;;;;;5.25;3.97;;;;;;;17.47;62.90;101000.16;5038706;28;20224;-56
2022/09/07 07:30:12;;;;;;;4.88;3.60;;;;;;;17.48;63.55;101001.91;5035671;28;20733;-56
2022/09/07 07:32:39;;;;;;;5.45;3.72;;;;;;;17.63;62.73;101006.81;5031959;28;20228;-58
2022/09/07 07:35:07;;;;;;;9.15;4.60;;;;;;;17.73;62.60;101009.25;5044473;28;20236;-57
2022/09/07 07:37:35;;;;;;;7.20;4.05;;;;;;;17.70;62.80;101011.97;5034445;28;20412;-55
2022/09/07 07:40:03;;;;;;;6.00;4.07;;;;;;;17.83;62.66;101018.72;5043978;28;20265;-56
2022/09/07 07:42:29;;;;;;;4.53;3.83;;;;;;;17.91;62.37;101024.72;5036336;28;20270;-57
2022/09/07 07:44:56;;;;;;;5.55;3.70;;;;;;;18.05;61.81;101019.91;5036187;28;20659;-57
2022/09/07 07:47:22;;;;;;;4.78;3.22;;;;;;;18.25;61.48;101015.81;5030217;28;20239;-57
2022/09/07 07:49:49;;;;;;;6.10;4.10;;;;;;;18.45;60.88;101009.94;5035524;28;20772;-56
2022/09/07 07:52:16;;;;;;;7.95;4.65;;;;;;;18.36;61.93;101003.09;5042706;28;20265;-58
2022/09/07 07:54:44;;;;;;;4.60;4.07;;;;;;;18.53;60.95;100999.94;5037693;28;20322;-57
2022/09/07 07:57:11;;;;;;;6.15;5.07;;;;;;;18.21;62.15;101003.53;5029059;28;21582;-57
2022/09/07 07:59:38;;;;;;;7.60;4.32;;;;;;;18.22;62.42;100994.66;5033002;28;20233;-55
2022/09/07 08:02:07;;;;;;;5.55;4.22;;;;;;;18.13;62.63;100999.31;5042283;28;20238;-57
2022/09/07 08:04:34;;;;;;;5.60;3.65;;;;;;;18.16;62.80;100995.69;5041600;28;20255;-56
2022/09/07 08:07:01;;;;;;;7.45;4.25;;;;;;;18.35;62.20;100994.25;5043524;28;20235;-57
2022/09/07 08:09:28;;;;;;;6.45;4.32;;;;;;;18.55;62.33;101000.78;5043235;28;20243;-57
2022/09/07 08:11:56;;;;;;;9.35;4.50;;;;;;;18.77;61.62;101006.34;5038185;28;20576;-58
2022/09/07 08:14:22;;;;;;;6.63;4.40;;;;;;;19.00;61.20;101006.50;5043498;28;20220;-57
2022/09/07 08:16:49;;;;;;;7.72;4.47;;;;;;;19.10;60.38;101000.91;5034815;28;20243;-57
2022/09/07 08:19:15;;;;;;;6.47;4.60;;;;;;;19.17;59.93;101011.28;5032286;28;20231;-57
2022/09/07 08:21:42;;;;;;;5.25;4.75;;;;;;;19.33;59.62;101014.31;5037773;28;20231;-57
2022/09/07 08:24:08;;;;;;;5.35;4.50;;;;;;;19.35;59.74;101012.50;5040683;28;20227;-57
2022/09/07 08:26:35;;;;;;;8.18;4.78;;;;;;;19.51;59.23;101013.69;5040202;28;20538;-56
2022/09/07 08:29:03;;;;;;;5.45;4.38;;;;;;;19.78;58.22;101003.94;5030851;28;20231;-57
2022/09/07 08:31:29;;;;;;;7.32;4.63;;;;;;;19.79;58.36;101004.81;5043187;28;20296;-56
2022/09/07 08:33:56;;;;;;;5.60;4.40;;;;;;;19.90;58.76;101010.66;5039319;28;20243;-55
2022/09/07 08:36:22;;;;;;;5.20;4.57;;;;;;;20.13;57.45;101011.63;5035272;28;20232;-56
2022/09/07 08:38:49;;;;;;;6.95;5.32;;;;;;;20.21;56.75;101009.53;5032905;28;20227;-59
2022/09/07 08:41:35;;;;;;;6.25;4.38;;;;;;;20.10;57.44;101001.06;5033648;28;20258;-56
2022/09/07 08:44:05;;;;;;;5.30;4.45;;;;;;;20.27;56.96;100995.97;5032290;28;20241;-57
2022/09/07 08:46:35;;;;;;;9.13;4.53;;;;;;;20.18;57.43;100983.88;5029183;28;20228;-59
2022/09/07 08:49:03;;;;;;;8.05;3.97;;;;;;;20.49;60.14;100980.91;5034056;28;20231;-59
2022/09/07 08:51:34;;;;;;;5.68;4.40;;;;;;;20.57;57.09;100982.44;5041141;28;20239;-60
2022/09/07 08:54:01;;;;;;;8.52;4.45;;;;;;;20.72;56.49;100984.53;5045165;28;20237;-59
2022/09/07 08:56:31;;;;;;;6.63;5.07;;;;;;;20.87;57.03;100988.38;5040768;28;20288;-60
2022/09/07 08:58:58;;;;;;;4.85;4.45;;;;;;;20.94;56.19;100985.41;5038879;28;20228;-58
2022/09/07 09:01:32;;;;;;;6.35;4.03;;;;;;;21.25;57.66;100978.81;5039833;28;20276;-59
2022/09/07 09:03:58;;;;;;;4.72;4.32;;;;;;;21.37;55.83;100981.00;5035045;28;20240;-59
2022/09/07 09:06:28;;;;;;;19.10;5.65;;;;;;;21.35;57.23;100977.53;5037634;28;20243;-62
2022/09/07 09:09:07;;;;;;;5.20;4.63;;;;;;;21.26;57.50;100980.56;5042357;28;20247;-58
2022/09/07 09:11:43;;;;;;;15.55;4.20;;;;;;;21.37;57.57;100972.97;5045536;28;20266;-61
2022/09/07 09:14:15;;;;;;;7.35;5.00;;;;;;;21.37;54.70;100972.13;5037892;28;20242;-58
2022/09/07 09:16:45;;;;;;;6.25;5.35;;;;;;;21.28;55.69;100978.69;5043167;28;20736;-60
2022/09/07 09:19:23;;;;;;;6.45;4.75;;;;;;;21.65;55.71;100977.16;5040938;28;20701;-60
2022/09/07 09:21:52;;;;;;;6.35;4.65;;;;;;;21.75;56.63;100978.50;5039126;28;20240;-58
2022/09/07 09:24:20;;;;;;;6.30;4.63;;;;;;;21.84;54.50;100983.44;5038995;28;20228;-57
2022/09/07 09:26:50;;;;;;;7.97;5.03;;;;;;;21.85;54.17;100977.16;5043484;28;20238;-59
2022/09/07 09:29:19;;;;;;;6.82;4.55;;;;;;;21.99;54.23;100981.03;5046988;28;20246;-65
2022/09/07 09:31:47;;;;;;;5.55;5.05;;;;;;;22.05;54.86;100975.44;5039983;28;20725;-59
2022/09/07 09:34:14;;;;;;;5.65;5.13;;;;;;;22.34;54.59;100977.66;5043122;28;20246;-58
2022/09/07 09:36:44;;;;;;;7.75;5.07;;;;;;;22.55;54.12;100964.22;5039676;28;20286;-60
2022/09/07 09:39:26;;;;;;;5.78;5.20;;;;;;;22.49;55.94;100970.72;5035496;28;20220;-59
2022/09/07 09:41:54;;;;;;;8.90;5.45;;;;;;;22.60;53.75;100963.09;5038868;28;20251;-59
2022/09/07 09:44:21;;;;;;;9.40;5.35;;;;;;;22.49;53.79;100962.69;5041837;28;20301;-60
2022/09/07 09:46:53;;;;;;;5.00;4.45;;;;;;;22.77;53.08;100964.94;5044733;28;20964;-61
2022/09/07 09:49:24;;;;;;;6.20;4.93;;;;;;;22.72;52.06;100956.25;5042364;28;20834;-60
2022/09/07 09:51:52;;;;;;;7.22;4.93;;;;;;;22.84;53.31;100961.00;5031684;28;20298;-60
2022/09/07 09:54:24;;;;;;;5.85;5.35;;;;;;;22.77;53.20;100964.06;5034515;28;20247;-60
2022/09/07 09:56:51;;;;;;;6.13;5.30;;;;;;;22.79;53.85;100956.84;5041824;28;20247;-60
2022/09/07 09:59:23;;;;;;;7.97;5.55;;;;;;;22.78;54.26;100955.09;5047939;28;20231;-60
2022/09/07 10:01:51;;;;;;;5.85;5.25;;;;;;;22.51;53.61;100947.44;5040573;28;20236;-60
2022/09/07 10:04:29;;;;;;;4.80;4.40;;;;;;;22.68;54.20;100945.78;5041877;28;20234;-59
2022/09/07 10:06:57;;;;;;;6.00;5.15;;;;;;;22.98;53.69;100946.13;5038799;28;20254;-60
2022/09/07 10:09:26;;;;;;;6.70;5.82;;;;;;;23.17;53.67;100938.06;5043695;28;20231;-60
2022/09/07 10:11:58;;;;;;;4.72;4.22;;;;;;;23.22;54.16;100934.19;5036627;28;20239;-58
2022/09/07 10:14:28;;;;;;;9.50;6.07;;;;;;;23.08;53.39;100942.06;5033400;28;20235;-61
2022/09/07 10:16:56;;;;;;;4.72;4.32;;;;;;;23.32;53.53;100931.91;5042482;28;20231;-61
2022/09/07 10:19:35;;;;;;;5.50;4.97;;;;;;;23.23;52.26;100929.69;5050404;28;20316;-61
2022/09/07 10:22:03;;;;;;;7.32;5.78;;;;;;;23.47;54.51;100938.28;5041899;28;20239;-60
2022/09/07 10:24:35;;;;;;;10.15;6.68;;;;;;;23.66;54.45;100933.72;5046394;28;20241;-60
2022/09/07 10:27:01;;;;;;;6.78;5.82;;;;;;;23.72;54.41;100925.38;5050484;28;20244;-61
2022/09/07 10:29:29;;;;;;;5.22;4.68;;;;;;;23.51;54.97;100926.47;5042994;28;20223;-57
2022/09/07 10:32:18;;;;;;;7.07;5.80;;;;;;;23.39;54.27;100924.44;5045286;28;20238;-58
2022/09/07 10:34:56;;;;;;;11.18;6.13;;;;;;;23.48;55.64;100918.56;5036216;28;20231;-62
2022/09/07 10:37:33;;;;;;;7.90;6.07;;;;;;;23.40;55.70;100931.50;5043168;28;20238;-62
2022/09/07 10:40:06;;;;;;;6.45;5.90;;;;;;;23.23;56.30;100918.97;5041895;28;20221;-61
2022/09/07 10:42:34;;;;;;;10.00;6.55;;;;;;;23.03;56.22;100928.03;5033902;28;20232;-61
2022/09/07 10:45:05;;;;;;;7.10;5.95;;;;;;;23.13;56.94;100923.94;5028877;28;20244;-59
2022/09/07 10:47:45;;;;;;;7.20;5.72;;;;;;;23.03;57.10;100923.53;5031194;28;20593;-61
2022/09/07 10:50:29;;;;;;;5.80;5.30;;;;;;;23.05;57.42;100923.44;5028518;28;20244;-61
2022/09/07 10:53:06;;;;;;;6.75;6.15;;;;;;;23.03;57.58;100920.00;5039095;28;20282;-61
2022/09/07 10:55:34;;;;;;;9.95;6.35;;;;;;;22.94;57.84;100921.31;5032590;28;20232;-58
2022/09/07 10:58:09;;;;;;;6.45;5.85;;;;;;;22.75;56.49;100923.13;5045642;28;20285;-60
2022/09/07 11:00:40;;;;;;;7.70;6.57;;;;;;;22.61;58.89;100910.41;5038979;28;20251;-61
2022/09/07 11:03:24;;;;;;;6.53;5.82;;;;;;;22.75;59.09;100910.63;5038684;28;20235;-61
2022/09/07 11:06:03;;;;;;;6.78;6.10;;;;;;;22.80;59.27;100900.53;5038075;28;20359;-60
2022/09/07 11:08:38;;;;;;;6.88;6.18;;;;;;;22.82;58.92;100893.31;5026205;28;20290;-60
2022/09/07 11:11:10;;;;;;;6.10;5.63;;;;;;;22.95;58.63;100900.75;5040015;28;20333;-60
2022/09/07 11:13:39;;;;;;;7.55;6.88;;;;;;;23.01;59.06;100903.13;5038785;28;20632;-59
2022/09/07 11:16:07;;;;;;;6.85;6.13;;;;;;;23.16;58.08;100907.69;5036652;28;20255;-59
2022/09/07 11:18:36;;;;;;;6.28;5.68;;;;;;;23.31;58.29;100912.28;5035301;28;20728;-59
2022/09/07 11:21:06;;;;;;;7.13;6.22;;;;;;;23.41;57.46;100917.16;5031507;28;20241;-61
2022/09/07 11:23:37;;;;;;;8.57;6.90;;;;;;;23.44;57.88;100917.88;5036108;28;20466;-60
2022/09/07 11:26:10;;;;;;;9.23;5.47;;;;;;;23.44;57.46;100927.72;5044256;28;20244;-59
2022/09/07 11:28:44;;;;;;;12.10;6.97;;;;;;;23.45;57.64;100918.75;5038593;28;20760;-61
2022/09/07 11:31:16;;;;;;;5.90;5.43;;;;;;;23.52;57.61;100914.81;5040046;28;20252;-59
2022/09/07 11:33:52;;;;;;;7.22;6.57;;;;;;;23.55;58.28;100914.63;5038248;28;20240;-58